sensor_id;sensor_type;location;lat;lon;timestamp;P1;durP1;ratioP1;P2;durP2;ratioP2
19137;SDS011;68178;52.188;5.598;2023-07-30T00:01:53;8.90;;;2.65;;
19137;SDS011;68178;52.188;5.598;2023-07-30T00:04:19;4.90;;;2.33;;
19137;SDS011;68178;52.188;5.598;2023-07-30T00:06:44;6.45;;;2.78;;
19137;SDS011;68178;52.188;5.598;2023-07-30T00:09:10;6.82;;;2.42;;
19137;SDS011;68178;52.188;5.598;2023-07-30T00:11:35;9.43;;;3.42;;
19137;SDS011;68178;52.188;5.598;2023-07-30T00:14:01;9.65;;;3.17;;
19137;SDS011;68178;52.188;5.598;2023-07-30T00:16:27;6.45;;;2.60;;
19137;SDS011;68178;52.188;5.598;2023-07-30T00:18:52;9.07;;;3.15;;
19137;SDS011;68178;52.188;5.598;2023-07-30T00:21:18;5.22;;;2.80;;
19137;SDS011;68178;52.188;5.598;2023-07-30T00:23:43;11.57;;;3.08;;
19137;SDS011;68178;52.188;5.598;2023-07-30T00:26:09;8.02;;;2.92;;
19137;SDS011;68178;52.188;5.598;2023-07-30T00:28:35;7.63;;;3.20;;
19137;SDS011;68178;52.188;5.598;2023-07-30T00:31:00;9.65;;;3.80;;
19137;SDS011;68178;52.188;5.598;2023-07-30T00:33:26;5.43;;;3.15;;
19137;SDS011;68178;52.188;5.598;2023-07-30T00:35:51;7.97;;;2.80;;
19137;SDS011;68178;52.188;5.598;2023-07-30T00:38:17;8.07;;;3.40;;
19137;SDS011;68178;52.188;5.598;2023-07-30T00:40:43;6.68;;;3.00;;
19137;SDS011;68178;52.188;5.598;2023-07-30T00:43:09;6.95;;;3.15;;
19137;SDS011;68178;52.188;5.598;2023-07-30T00:45:35;7.40;;;3.33;;
19137;SDS011;68178;52.188;5.598;2023-07-30T00:48:03;8.82;;;3.17;;
19137;SDS011;68178;52.188;5.598;2023-07-30T00:50:29;9.68;;;3.00;;
19137;SDS011;68178;52.188;5.598;2023-07-30T00:52:55;6.38;;;3.42;;
19137;SDS011;68178;52.188;5.598;2023-07-30T00:55:21;4.90;;;2.95;;
19137;SDS011;68178;52.188;5.598;2023-07-30T00:57:47;10.20;;;2.97;;
19137;SDS011;68178;52.188;5.598;2023-07-30T01:00:13;4.63;;;3.25;;
19137;SDS011;68178;52.188;5.598;2023-07-30T01:02:39;9.32;;;3.38;;
19137;SDS011;68178;52.188;5.598;2023-07-30T01:05:05;8.85;;;3.92;;
19137;SDS011;68178;52.188;5.598;2023-07-30T01:07:31;6.28;;;3.25;;
19137;SDS011;68178;52.188;5.598;2023-07-30T01:09:57;6.13;;;3.72;;
19137;SDS011;68178;52.188;5.598;2023-07-30T01:12:24;9.23;;;3.75;;
19137;SDS011;68178;52.188;5.598;2023-07-30T01:14:51;11.77;;;4.55;;
19137;SDS011;68178;52.188;5.598;2023-07-30T01:17:17;10.25;;;4.45;;
19137;SDS011;68178;52.188;5.598;2023-07-30T01:19:43;12.40;;;4.63;;
19137;SDS011;68178;52.188;5.598;2023-07-30T01:22:09;9.60;;;4.28;;
19137;SDS011;68178;52.188;5.598;2023-07-30T01:24:35;8.13;;;3.90;;
19137;SDS011;68178;52.188;5.598;2023-07-30T01:27:12;11.20;;;4.00;;
19137;SDS011;68178;52.188;5.598;2023-07-30T01:29:53;8.50;;;4.15;;
19137;SDS011;68178;52.188;5.598;2023-07-30T01:32:25;7.45;;;3.67;;
19137;SDS011;68178;52.188;5.598;2023-07-30T01:34:53;9.85;;;3.90;;
19137;SDS011;68178;52.188;5.598;2023-07-30T01:37:19;11.05;;;4.18;;
19137;SDS011;68178;52.188;5.598;2023-07-30T01:39:47;12.05;;;5.03;;
19137;SDS011;68178;52.188;5.598;2023-07-30T01:42:14;8.55;;;3.50;;
19137;SDS011;68178;52.188;5.598;2023-07-30T01:44:40;10.25;;;3.88;;
19137;SDS011;68178;52.188;5.598;2023-07-30T01:47:06;10.27;;;4.05;;
19137;SDS011;68178;52.188;5.598;2023-07-30T01:49:32;8.27;;;4.55;;
19137;SDS011;68178;52.188;5.598;2023-07-30T01:51:57;9.70;;;4.03;;
19137;SDS011;68178;52.188;5.598;2023-07-30T01:54:23;9.38;;;4.50;;
19137;SDS011;68178;52.188;5.598;2023-07-30T01:56:49;9.25;;;4.88;;
19137;SDS011;68178;52.188;5.598;2023-07-30T01:59:14;14.35;;;4.25;;
19137;SDS011;68178;52.188;5.598;2023-07-30T02:01:40;7.00;;;3.45;;
19137;SDS011;68178;52.188;5.598;2023-07-30T02:04:06;7.15;;;3.53;;
19137;SDS011;68178;52.188;5.598;2023-07-30T02:06:32;9.40;;;4.22;;
19137;SDS011;68178;52.188;5.598;2023-07-30T02:08:57;8.95;;;4.18;;
19137;SDS011;68178;52.188;5.598;2023-07-30T02:11:23;9.82;;;4.20;;
19137;SDS011;68178;52.188;5.598;2023-07-30T02:13:49;10.65;;;4.25;;
19137;SDS011;68178;52.188;5.598;2023-07-30T02:16:14;10.50;;;3.70;;
19137;SDS011;68178;52.188;5.598;2023-07-30T02:18:40;17.35;;;4.78;;
19137;SDS011;68178;52.188;5.598;2023-07-30T02:21:05;9.88;;;4.45;;
19137;SDS011;68178;52.188;5.598;2023-07-30T02:23:31;15.02;;;4.25;;
19137;SDS011;68178;52.188;5.598;2023-07-30T02:25:57;8.82;;;5.03;;
19137;SDS011;68178;52.188;5.598;2023-07-30T02:28:22;11.30;;;4.45;;
19137;SDS011;68178;52.188;5.598;2023-07-30T02:30:48;10.73;;;3.95;;
19137;SDS011;68178;52.188;5.598;2023-07-30T02:33:13;9.68;;;4.28;;
19137;SDS011;68178;52.188;5.598;2023-07-30T02:35:39;8.68;;;3.67;;
19137;SDS011;68178;52.188;5.598;2023-07-30T02:38:04;9.20;;;3.78;;
19137;SDS011;68178;52.188;5.598;2023-07-30T02:40:30;9.77;;;3.63;;
19137;SDS011;68178;52.188;5.598;2023-07-30T02:42:56;10.93;;;3.97;;
19137;SDS011;68178;52.188;5.598;2023-07-30T02:45:22;14.55;;;4.30;;
19137;SDS011;68178;52.188;5.598;2023-07-30T02:47:47;11.60;;;4.75;;
19137;SDS011;68178;52.188;5.598;2023-07-30T02:50:13;9.68;;;3.88;;
19137;SDS011;68178;52.188;5.598;2023-07-30T02:52:38;12.73;;;4.20;;
19137;SDS011;68178;52.188;5.598;2023-07-30T02:55:04;9.95;;;4.13;;
19137;SDS011;68178;52.188;5.598;2023-07-30T02:57:30;13.80;;;4.55;;
19137;SDS011;68178;52.188;5.598;2023-07-30T02:59:56;13.68;;;4.88;;
19137;SDS011;68178;52.188;5.598;2023-07-30T03:02:22;10.32;;;4.47;;
19137;SDS011;68178;52.188;5.598;2023-07-30T03:04:47;14.73;;;4.60;;
19137;SDS011;68178;52.188;5.598;2023-07-30T03:07:13;9.90;;;4.25;;
19137;SDS011;68178;52.188;5.598;2023-07-30T03:09:39;8.82;;;4.28;;
19137;SDS011;68178;52.188;5.598;2023-07-30T03:12:04;11.77;;;4.20;;
19137;SDS011;68178;52.188;5.598;2023-07-30T03:14:30;11.80;;;5.18;;
19137;SDS011;68178;52.188;5.598;2023-07-30T03:16:56;14.65;;;4.50;;
19137;SDS011;68178;52.188;5.598;2023-07-30T03:19:21;14.02;;;5.40;;
19137;SDS011;68178;52.188;5.598;2023-07-30T03:21:47;16.33;;;4.82;;
19137;SDS011;68178;52.188;5.598;2023-07-30T03:24:12;11.80;;;4.57;;
19137;SDS011;68178;52.188;5.598;2023-07-30T03:26:38;17.77;;;5.88;;
19137;SDS011;68178;52.188;5.598;2023-07-30T03:29:03;13.25;;;5.05;;
19137;SDS011;68178;52.188;5.598;2023-07-30T03:31:29;16.45;;;5.25;;
19137;SDS011;68178;52.188;5.598;2023-07-30T03:33:55;17.75;;;4.97;;
19137;SDS011;68178;52.188;5.598;2023-07-30T03:36:20;11.80;;;4.93;;
19137;SDS011;68178;52.188;5.598;2023-07-30T03:38:46;14.00;;;5.53;;
19137;SDS011;68178;52.188;5.598;2023-07-30T03:41:12;15.43;;;5.47;;
19137;SDS011;68178;52.188;5.598;2023-07-30T03:43:37;13.60;;;5.30;;
19137;SDS011;68178;52.188;5.598;2023-07-30T03:46:03;16.20;;;5.53;;
19137;SDS011;68178;52.188;5.598;2023-07-30T03:48:28;12.07;;;5.35;;
19137;SDS011;68178;52.188;5.598;2023-07-30T03:50:54;20.50;;;5.38;;
19137;SDS011;68178;52.188;5.598;2023-07-30T03:53:20;16.02;;;5.80;;
19137;SDS011;68178;52.188;5.598;2023-07-30T03:55:46;17.55;;;6.18;;
19137;SDS011;68178;52.188;5.598;2023-07-30T03:58:12;13.07;;;5.07;;
19137;SDS011;68178;52.188;5.598;2023-07-30T04:00:38;13.77;;;4.95;;
19137;SDS011;68178;52.188;5.598;2023-07-30T04:03:03;17.65;;;6.32;;
19137;SDS011;68178;52.188;5.598;2023-07-30T04:05:29;20.25;;;5.82;;
19137;SDS011;68178;52.188;5.598;2023-07-30T04:07:55;16.52;;;6.22;;
19137;SDS011;68178;52.188;5.598;2023-07-30T04:10:21;13.88;;;5.75;;
19137;SDS011;68178;52.188;5.598;2023-07-30T04:12:47;17.13;;;6.35;;
19137;SDS011;68178;52.188;5.598;2023-07-30T04:15:12;15.98;;;6.05;;
19137;SDS011;68178;52.188;5.598;2023-07-30T04:17:39;17.90;;;7.20;;
19137;SDS011;68178;52.188;5.598;2023-07-30T04:20:04;20.90;;;7.20;;
19137;SDS011;68178;52.188;5.598;2023-07-30T04:22:31;18.95;;;6.45;;
19137;SDS011;68178;52.188;5.598;2023-07-30T04:24:56;17.08;;;6.90;;
19137;SDS011;68178;52.188;5.598;2023-07-30T04:27:22;20.98;;;6.70;;
19137;SDS011;68178;52.188;5.598;2023-07-30T04:29:47;23.77;;;6.97;;
19137;SDS011;68178;52.188;5.598;2023-07-30T04:32:13;26.88;;;6.57;;
19137;SDS011;68178;52.188;5.598;2023-07-30T04:34:39;18.88;;;6.93;;
19137;SDS011;68178;52.188;5.598;2023-07-30T04:37:05;21.08;;;6.50;;
19137;SDS011;68178;52.188;5.598;2023-07-30T04:39:34;22.17;;;7.47;;
19137;SDS011;68178;52.188;5.598;2023-07-30T04:42:00;22.33;;;7.30;;
19137;SDS011;68178;52.188;5.598;2023-07-30T04:44:26;20.52;;;7.18;;
19137;SDS011;68178;52.188;5.598;2023-07-30T04:46:52;21.30;;;7.72;;
19137;SDS011;68178;52.188;5.598;2023-07-30T04:49:17;23.65;;;8.48;;
19137;SDS011;68178;52.188;5.598;2023-07-30T04:51:43;22.17;;;7.90;;
19137;SDS011;68178;52.188;5.598;2023-07-30T04:54:09;22.50;;;8.65;;
19137;SDS011;68178;52.188;5.598;2023-07-30T04:56:34;23.63;;;8.77;;
19137;SDS011;68178;52.188;5.598;2023-07-30T04:59:00;25.85;;;8.85;;
19137;SDS011;68178;52.188;5.598;2023-07-30T05:01:26;27.88;;;9.50;;
19137;SDS011;68178;52.188;5.598;2023-07-30T05:03:52;31.00;;;9.50;;
19137;SDS011;68178;52.188;5.598;2023-07-30T05:06:17;28.98;;;10.18;;
19137;SDS011;68178;52.188;5.598;2023-07-30T05:08:43;24.65;;;9.05;;
19137;SDS011;68178;52.188;5.598;2023-07-30T05:11:09;23.77;;;10.18;;
19137;SDS011;68178;52.188;5.598;2023-07-30T05:13:34;22.08;;;9.73;;
19137;SDS011;68178;52.188;5.598;2023-07-30T05:16:00;27.80;;;10.45;;
19137;SDS011;68178;52.188;5.598;2023-07-30T05:18:26;29.40;;;11.20;;
19137;SDS011;68178;52.188;5.598;2023-07-30T05:20:52;21.80;;;10.85;;
19137;SDS011;68178;52.188;5.598;2023-07-30T05:23:18;30.50;;;11.07;;
19137;SDS011;68178;52.188;5.598;2023-07-30T05:25:44;36.20;;;11.73;;
19137;SDS011;68178;52.188;5.598;2023-07-30T05:28:09;26.58;;;11.55;;
19137;SDS011;68178;52.188;5.598;2023-07-30T05:30:35;27.52;;;11.75;;
19137;SDS011;68178;52.188;5.598;2023-07-30T05:33:01;30.17;;;11.57;;
19137;SDS011;68178;52.188;5.598;2023-07-30T05:35:26;24.67;;;11.82;;
19137;SDS011;68178;52.188;5.598;2023-07-30T05:37:52;31.17;;;12.95;;
19137;SDS011;68178;52.188;5.598;2023-07-30T05:40:17;35.40;;;12.73;;
19137;SDS011;68178;52.188;5.598;2023-07-30T05:42:43;27.17;;;11.63;;
19137;SDS011;68178;52.188;5.598;2023-07-30T05:45:09;33.20;;;13.52;;
19137;SDS011;68178;52.188;5.598;2023-07-30T05:47:34;37.42;;;13.77;;
19137;SDS011;68178;52.188;5.598;2023-07-30T05:50:01;30.40;;;11.98;;
19137;SDS011;68178;52.188;5.598;2023-07-30T05:52:27;33.33;;;13.60;;
19137;SDS011;68178;52.188;5.598;2023-07-30T05:54:53;24.98;;;11.68;;
19137;SDS011;68178;52.188;5.598;2023-07-30T05:57:18;33.33;;;14.07;;
19137;SDS011;68178;52.188;5.598;2023-07-30T05:59:44;33.55;;;12.90;;
19137;SDS011;68178;52.188;5.598;2023-07-30T06:02:09;25.13;;;11.77;;
19137;SDS011;68178;52.188;5.598;2023-07-30T06:04:35;33.72;;;12.80;;
19137;SDS011;68178;52.188;5.598;2023-07-30T06:07:01;25.77;;;11.20;;
19137;SDS011;68178;52.188;5.598;2023-07-30T06:09:28;25.13;;;11.60;;
19137;SDS011;68178;52.188;5.598;2023-07-30T06:11:54;25.70;;;11.75;;
19137;SDS011;68178;52.188;5.598;2023-07-30T06:14:23;26.63;;;11.63;;
19137;SDS011;68178;52.188;5.598;2023-07-30T06:16:49;25.45;;;11.50;;
19137;SDS011;68178;52.188;5.598;2023-07-30T06:19:15;25.30;;;11.40;;
19137;SDS011;68178;52.188;5.598;2023-07-30T06:21:41;21.77;;;10.80;;
19137;SDS011;68178;52.188;5.598;2023-07-30T06:24:07;21.73;;;11.63;;
19137;SDS011;68178;52.188;5.598;2023-07-30T06:26:32;25.77;;;11.90;;
19137;SDS011;68178;52.188;5.598;2023-07-30T06:28:58;27.63;;;12.85;;
19137;SDS011;68178;52.188;5.598;2023-07-30T06:31:24;28.45;;;12.38;;
19137;SDS011;68178;52.188;5.598;2023-07-30T06:33:49;31.27;;;12.77;;
19137;SDS011;68178;52.188;5.598;2023-07-30T06:36:15;29.42;;;13.15;;
19137;SDS011;68178;52.188;5.598;2023-07-30T06:38:40;28.83;;;12.65;;
19137;SDS011;68178;52.188;5.598;2023-07-30T06:41:09;26.02;;;13.63;;
19137;SDS011;68178;52.188;5.598;2023-07-30T06:43:34;28.52;;;11.95;;
19137;SDS011;68178;52.188;5.598;2023-07-30T06:46:00;29.98;;;13.05;;
19137;SDS011;68178;52.188;5.598;2023-07-30T06:48:26;29.10;;;12.25;;
19137;SDS011;68178;52.188;5.598;2023-07-30T06:50:51;29.85;;;12.63;;
19137;SDS011;68178;52.188;5.598;2023-07-30T06:53:17;28.38;;;12.73;;
19137;SDS011;68178;52.188;5.598;2023-07-30T06:55:42;25.50;;;12.80;;
19137;SDS011;68178;52.188;5.598;2023-07-30T06:58:08;26.15;;;12.18;;
19137;SDS011;68178;52.188;5.598;2023-07-30T07:00:34;28.60;;;12.93;;
19137;SDS011;68178;52.188;5.598;2023-07-30T07:03:00;25.13;;;12.52;;
19137;SDS011;68178;52.188;5.598;2023-07-30T07:05:26;29.17;;;12.02;;
19137;SDS011;68178;52.188;5.598;2023-07-30T07:07:51;23.92;;;12.85;;
19137;SDS011;68178;52.188;5.598;2023-07-30T07:10:17;33.20;;;11.25;;
19137;SDS011;68178;52.188;5.598;2023-07-30T07:12:42;25.30;;;12.07;;
19137;SDS011;68178;52.188;5.598;2023-07-30T07:15:08;24.55;;;10.73;;
19137;SDS011;68178;52.188;5.598;2023-07-30T07:17:34;25.05;;;11.60;;
19137;SDS011;68178;52.188;5.598;2023-07-30T07:20:00;32.83;;;11.55;;
19137;SDS011;68178;52.188;5.598;2023-07-30T07:22:25;19.58;;;10.95;;
19137;SDS011;68178;52.188;5.598;2023-07-30T07:24:51;24.15;;;10.55;;
19137;SDS011;68178;52.188;5.598;2023-07-30T07:27:20;26.27;;;9.90;;
19137;SDS011;68178;52.188;5.598;2023-07-30T07:29:45;22.48;;;10.90;;
19137;SDS011;68178;52.188;5.598;2023-07-30T07:32:11;29.42;;;10.38;;
19137;SDS011;68178;52.188;5.598;2023-07-30T07:34:36;26.95;;;10.35;;
19137;SDS011;68178;52.188;5.598;2023-07-30T07:37:02;21.30;;;9.18;;
19137;SDS011;68178;52.188;5.598;2023-07-30T07:39:28;24.65;;;9.68;;
19137;SDS011;68178;52.188;5.598;2023-07-30T07:41:54;22.60;;;8.93;;
19137;SDS011;68178;52.188;5.598;2023-07-30T07:44:20;22.67;;;9.02;;
19137;SDS011;68178;52.188;5.598;2023-07-30T07:46:46;23.92;;;8.88;;
19137;SDS011;68178;52.188;5.598;2023-07-30T07:49:12;20.88;;;8.25;;
19137;SDS011;68178;52.188;5.598;2023-07-30T07:51:38;21.05;;;8.23;;
19137;SDS011;68178;52.188;5.598;2023-07-30T07:54:03;22.00;;;8.07;;
19137;SDS011;68178;52.188;5.598;2023-07-30T07:56:29;15.82;;;7.38;;
19137;SDS011;68178;52.188;5.598;2023-07-30T07:58:56;16.02;;;6.60;;
19137;SDS011;68178;52.188;5.598;2023-07-30T08:01:21;23.13;;;6.97;;
19137;SDS011;68178;52.188;5.598;2023-07-30T08:03:47;19.85;;;6.55;;
19137;SDS011;68178;52.188;5.598;2023-07-30T08:06:13;24.33;;;7.22;;
19137;SDS011;68178;52.188;5.598;2023-07-30T08:08:38;24.77;;;7.80;;
19137;SDS011;68178;52.188;5.598;2023-07-30T08:11:05;16.50;;;6.55;;
19137;SDS011;68178;52.188;5.598;2023-07-30T08:13:33;17.48;;;5.88;;
19137;SDS011;68178;52.188;5.598;2023-07-30T08:15:59;17.60;;;4.90;;
19137;SDS011;68178;52.188;5.598;2023-07-30T08:18:26;21.10;;;6.47;;
19137;SDS011;68178;52.188;5.598;2023-07-30T08:20:52;18.20;;;5.07;;
19137;SDS011;68178;52.188;5.598;2023-07-30T08:23:18;19.63;;;5.90;;
19137;SDS011;68178;52.188;5.598;2023-07-30T08:25:44;18.13;;;5.97;;
19137;SDS011;68178;52.188;5.598;2023-07-30T08:28:09;22.95;;;6.13;;
19137;SDS011;68178;52.188;5.598;2023-07-30T08:30:35;15.30;;;5.15;;
19137;SDS011;68178;52.188;5.598;2023-07-30T08:33:00;17.02;;;6.20;;
19137;SDS011;68178;52.188;5.598;2023-07-30T08:35:26;15.75;;;4.43;;
19137;SDS011;68178;52.188;5.598;2023-07-30T08:37:52;14.60;;;5.30;;
19137;SDS011;68178;52.188;5.598;2023-07-30T08:40:18;20.45;;;6.30;;
19137;SDS011;68178;52.188;5.598;2023-07-30T08:42:45;14.68;;;5.05;;
19137;SDS011;68178;52.188;5.598;2023-07-30T08:45:11;12.65;;;4.75;;
19137;SDS011;68178;52.188;5.598;2023-07-30T08:47:37;14.82;;;5.57;;
19137;SDS011;68178;52.188;5.598;2023-07-30T08:50:05;20.23;;;6.30;;
19137;SDS011;68178;52.188;5.598;2023-07-30T08:52:31;16.88;;;5.38;;
19137;SDS011;68178;52.188;5.598;2023-07-30T08:54:59;19.58;;;7.40;;
19137;SDS011;68178;52.188;5.598;2023-07-30T08:57:27;19.25;;;7.22;;
19137;SDS011;68178;52.188;5.598;2023-07-30T08:59:59;15.20;;;6.70;;
19137;SDS011;68178;52.188;5.598;2023-07-30T09:02:34;17.02;;;6.97;;
19137;SDS011;68178;52.188;5.598;2023-07-30T09:05:04;17.88;;;7.50;;
19137;SDS011;68178;52.188;5.598;2023-07-30T09:07:31;18.83;;;6.85;;
19137;SDS011;68178;52.188;5.598;2023-07-30T09:09:56;19.77;;;6.32;;
19137;SDS011;68178;52.188;5.598;2023-07-30T09:12:31;20.08;;;6.22;;
19137;SDS011;68178;52.188;5.598;2023-07-30T09:14:58;15.52;;;5.65;;
19137;SDS011;68178;52.188;5.598;2023-07-30T09:17:24;14.07;;;5.13;;
19137;SDS011;68178;52.188;5.598;2023-07-30T09:19:51;15.88;;;4.45;;
19137;SDS011;68178;52.188;5.598;2023-07-30T09:22:24;19.83;;;5.30;;
19137;SDS011;68178;52.188;5.598;2023-07-30T09:25:05;17.92;;;6.10;;
19137;SDS011;68178;52.188;5.598;2023-07-30T09:27:31;14.73;;;5.18;;
19137;SDS011;68178;52.188;5.598;2023-07-30T09:30:01;15.13;;;5.30;;
19137;SDS011;68178;52.188;5.598;2023-07-30T09:32:31;15.48;;;4.93;;
19137;SDS011;68178;52.188;5.598;2023-07-30T09:35:07;19.88;;;5.93;;
19137;SDS011;68178;52.188;5.598;2023-07-30T09:37:37;10.23;;;4.07;;
19137;SDS011;68178;52.188;5.598;2023-07-30T09:40:08;14.52;;;5.47;;
19137;SDS011;68178;52.188;5.598;2023-07-30T09:42:37;14.60;;;4.88;;
19137;SDS011;68178;52.188;5.598;2023-07-30T09:45:06;16.20;;;4.40;;
19137;SDS011;68178;52.188;5.598;2023-07-30T09:47:33;16.80;;;4.70;;
19137;SDS011;68178;52.188;5.598;2023-07-30T09:50:02;14.18;;;4.85;;
19137;SDS011;68178;52.188;5.598;2023-07-30T09:52:27;11.85;;;4.53;;
19137;SDS011;68178;52.188;5.598;2023-07-30T09:54:55;14.48;;;4.25;;
19137;SDS011;68178;52.188;5.598;2023-07-30T09:57:23;14.25;;;4.05;;
19137;SDS011;68178;52.188;5.598;2023-07-30T09:59:49;15.63;;;4.22;;
19137;SDS011;68178;52.188;5.598;2023-07-30T10:02:15;18.90;;;4.72;;
19137;SDS011;68178;52.188;5.598;2023-07-30T10:04:42;15.88;;;5.10;;
19137;SDS011;68178;52.188;5.598;2023-07-30T10:07:18;14.52;;;3.75;;
19137;SDS011;68178;52.188;5.598;2023-07-30T10:09:47;10.07;;;3.47;;
19137;SDS011;68178;52.188;5.598;2023-07-30T10:12:16;14.10;;;3.72;;
19137;SDS011;68178;52.188;5.598;2023-07-30T10:14:45;14.02;;;3.28;;
19137;SDS011;68178;52.188;5.598;2023-07-30T10:17:12;14.18;;;3.20;;
19137;SDS011;68178;52.188;5.598;2023-07-30T10:19:37;11.13;;;2.70;;
19137;SDS011;68178;52.188;5.598;2023-07-30T10:24:38;10.35;;;2.97;;
19137;SDS011;68178;52.188;5.598;2023-07-30T10:27:07;9.50;;;2.53;;
19137;SDS011;68178;52.188;5.598;2023-07-30T10:29:35;9.90;;;3.03;;
19137;SDS011;68178;52.188;5.598;2023-07-30T10:32:01;7.32;;;2.30;;
19137;SDS011;68178;52.188;5.598;2023-07-30T10:34:43;8.60;;;2.25;;
19137;SDS011;68178;52.188;5.598;2023-07-30T10:37:18;7.00;;;1.75;;
19137;SDS011;68178;52.188;5.598;2023-07-30T10:39:47;10.50;;;2.42;;
19137;SDS011;68178;52.188;5.598;2023-07-30T10:42:13;7.07;;;2.25;;
19137;SDS011;68178;52.188;5.598;2023-07-30T10:44:40;9.05;;;1.95;;
19137;SDS011;68178;52.188;5.598;2023-07-30T10:47:08;7.55;;;2.30;;
19137;SDS011;68178;52.188;5.598;2023-07-30T10:49:38;6.07;;;1.67;;
19137;SDS011;68178;52.188;5.598;2023-07-30T10:52:05;4.22;;;1.58;;
19137;SDS011;68178;52.188;5.598;2023-07-30T10:54:34;5.53;;;1.58;;
19137;SDS011;68178;52.188;5.598;2023-07-30T10:57:00;9.02;;;2.00;;
19137;SDS011;68178;52.188;5.598;2023-07-30T10:59:27;9.07;;;1.83;;
19137;SDS011;68178;52.188;5.598;2023-07-30T11:02:01;9.55;;;2.05;;
19137;SDS011;68178;52.188;5.598;2023-07-30T11:04:28;7.95;;;1.90;;
19137;SDS011;68178;52.188;5.598;2023-07-30T11:06:53;9.70;;;1.90;;
19137;SDS011;68178;52.188;5.598;2023-07-30T11:09:20;8.15;;;2.30;;
19137;SDS011;68178;52.188;5.598;2023-07-30T11:11:47;10.23;;;2.60;;
19137;SDS011;68178;52.188;5.598;2023-07-30T11:14:16;6.25;;;1.92;;
19137;SDS011;68178;52.188;5.598;2023-07-30T11:16:50;10.30;;;2.53;;
19137;SDS011;68178;52.188;5.598;2023-07-30T11:19:17;6.95;;;2.38;;
19137;SDS011;68178;52.188;5.598;2023-07-30T11:21:46;11.52;;;2.90;;
19137;SDS011;68178;52.188;5.598;2023-07-30T11:24:13;8.15;;;1.63;;
19137;SDS011;68178;52.188;5.598;2023-07-30T11:26:39;7.10;;;1.48;;
19137;SDS011;68178;52.188;5.598;2023-07-30T11:29:18;6.07;;;1.70;;
19137;SDS011;68178;52.188;5.598;2023-07-30T11:31:45;5.53;;;1.65;;
19137;SDS011;68178;52.188;5.598;2023-07-30T11:34:11;5.82;;;1.70;;
19137;SDS011;68178;52.188;5.598;2023-07-30T11:36:38;5.32;;;1.55;;
19137;SDS011;68178;52.188;5.598;2023-07-30T11:39:05;4.75;;;1.50;;
19137;SDS011;68178;52.188;5.598;2023-07-30T11:41:33;4.18;;;1.23;;
19137;SDS011;68178;52.188;5.598;2023-07-30T11:43:59;4.72;;;1.40;;
19137;SDS011;68178;52.188;5.598;2023-07-30T11:46:25;6.13;;;1.38;;
19137;SDS011;68178;52.188;5.598;2023-07-30T11:48:51;6.15;;;1.65;;
19137;SDS011;68178;52.188;5.598;2023-07-30T11:51:19;6.25;;;1.67;;
19137;SDS011;68178;52.188;5.598;2023-07-30T11:56:17;5.40;;;1.48;;
19137;SDS011;68178;52.188;5.598;2023-07-30T11:58:43;7.65;;;1.73;;
19137;SDS011;68178;52.188;5.598;2023-07-30T12:01:09;6.85;;;1.88;;
19137;SDS011;68178;52.188;5.598;2023-07-30T12:03:34;7.53;;;1.55;;
19137;SDS011;68178;52.188;5.598;2023-07-30T12:06:04;11.05;;;1.80;;
19137;SDS011;68178;52.188;5.598;2023-07-30T12:08:30;5.32;;;1.30;;
19137;SDS011;68178;52.188;5.598;2023-07-30T12:11:01;5.78;;;1.52;;
19137;SDS011;68178;52.188;5.598;2023-07-30T12:13:28;4.47;;;1.00;;
19137;SDS011;68178;52.188;5.598;2023-07-30T12:15:54;3.97;;;1.23;;
19137;SDS011;68178;52.188;5.598;2023-07-30T12:18:20;5.72;;;1.45;;
19137;SDS011;68178;52.188;5.598;2023-07-30T12:20:48;3.25;;;1.38;;
19137;SDS011;68178;52.188;5.598;2023-07-30T12:23:18;4.60;;;1.35;;
19137;SDS011;68178;52.188;5.598;2023-07-30T12:25:45;5.90;;;1.40;;
19137;SDS011;68178;52.188;5.598;2023-07-30T12:28:12;12.98;;;2.53;;
19137;SDS011;68178;52.188;5.598;2023-07-30T12:30:38;4.60;;;1.58;;
19137;SDS011;68178;52.188;5.598;2023-07-30T12:33:04;8.13;;;1.45;;
19137;SDS011;68178;52.188;5.598;2023-07-30T12:35:30;4.47;;;1.42;;
19137;SDS011;68178;52.188;5.598;2023-07-30T12:37:57;5.88;;;1.75;;
19137;SDS011;68178;52.188;5.598;2023-07-30T12:40:23;3.72;;;1.00;;
19137;SDS011;68178;52.188;5.598;2023-07-30T12:43:02;5.88;;;1.08;;
19137;SDS011;68178;52.188;5.598;2023-07-30T12:45:28;3.97;;;1.15;;
19137;SDS011;68178;52.188;5.598;2023-07-30T12:48:00;4.05;;;1.00;;
19137;SDS011;68178;52.188;5.598;2023-07-30T12:50:29;7.43;;;1.33;;
19137;SDS011;68178;52.188;5.598;2023-07-30T12:52:54;6.97;;;1.98;;
19137;SDS011;68178;52.188;5.598;2023-07-30T12:55:23;5.35;;;1.40;;
19137;SDS011;68178;52.188;5.598;2023-07-30T12:57:56;5.10;;;1.55;;
19137;SDS011;68178;52.188;5.598;2023-07-30T13:41:59;4.47;;;1.27;;
19137;SDS011;68178;52.188;5.598;2023-07-30T14:30:16;6.22;;;1.55;;
19137;SDS011;68178;52.188;5.598;2023-07-30T14:33:02;4.45;;;1.52;;
19137;SDS011;68178;52.188;5.598;2023-07-30T14:35:35;8.90;;;2.50;;
19137;SDS011;68178;52.188;5.598;2023-07-30T14:41:13;7.88;;;1.50;;
19137;SDS011;68178;52.188;5.598;2023-07-30T14:47:13;5.13;;;1.40;;
19137;SDS011;68178;52.188;5.598;2023-07-30T14:58:29;5.35;;;1.17;;
19137;SDS011;68178;52.188;5.598;2023-07-30T15:00:47;8.60;;;2.45;;
19137;SDS011;68178;52.188;5.598;2023-07-30T15:03:13;8.32;;;1.92;;
19137;SDS011;68178;52.188;5.598;2023-07-30T15:05:39;5.63;;;1.38;;
19137;SDS011;68178;52.188;5.598;2023-07-30T15:08:04;3.70;;;1.30;;
19137;SDS011;68178;52.188;5.598;2023-07-30T15:10:30;10.00;;;1.92;;
19137;SDS011;68178;52.188;5.598;2023-07-30T15:12:56;4.07;;;1.67;;
19137;SDS011;68178;52.188;5.598;2023-07-30T15:15:22;4.40;;;1.50;;
19137;SDS011;68178;52.188;5.598;2023-07-30T15:17:47;5.40;;;1.60;;
19137;SDS011;68178;52.188;5.598;2023-07-30T15:20:13;5.55;;;1.95;;
19137;SDS011;68178;52.188;5.598;2023-07-30T15:22:38;8.13;;;1.83;;
19137;SDS011;68178;52.188;5.598;2023-07-30T15:25:04;7.55;;;1.90;;
19137;SDS011;68178;52.188;5.598;2023-07-30T15:27:30;6.13;;;1.88;;
19137;SDS011;68178;52.188;5.598;2023-07-30T15:29:56;8.00;;;2.00;;
19137;SDS011;68178;52.188;5.598;2023-07-30T15:32:21;9.52;;;1.77;;
19137;SDS011;68178;52.188;5.598;2023-07-30T15:34:47;6.25;;;2.30;;
19137;SDS011;68178;52.188;5.598;2023-07-30T15:37:13;10.35;;;2.75;;
19137;SDS011;68178;52.188;5.598;2023-07-30T15:39:38;8.50;;;2.40;;
19137;SDS011;68178;52.188;5.598;2023-07-30T15:42:05;8.63;;;2.25;;
19137;SDS011;68178;52.188;5.598;2023-07-30T15:44:31;10.05;;;2.58;;
19137;SDS011;68178;52.188;5.598;2023-07-30T15:46:56;9.63;;;2.13;;
19137;SDS011;68178;52.188;5.598;2023-07-30T15:49:23;6.38;;;1.88;;
19137;SDS011;68178;52.188;5.598;2023-07-30T15:51:49;4.93;;;1.48;;
19137;SDS011;68178;52.188;5.598;2023-07-30T15:54:16;5.57;;;1.95;;
19137;SDS011;68178;52.188;5.598;2023-07-30T15:56:42;6.40;;;1.80;;
19137;SDS011;68178;52.188;5.598;2023-07-30T15:59:07;9.20;;;1.95;;
19137;SDS011;68178;52.188;5.598;2023-07-30T16:01:33;6.88;;;1.90;;
19137;SDS011;68178;52.188;5.598;2023-07-30T16:03:59;10.20;;;2.00;;
19137;SDS011;68178;52.188;5.598;2023-07-30T16:06:25;6.82;;;1.77;;
19137;SDS011;68178;52.188;5.598;2023-07-30T16:08:51;10.73;;;1.98;;
19137;SDS011;68178;52.188;5.598;2023-07-30T16:11:17;11.60;;;3.22;;
19137;SDS011;68178;52.188;5.598;2023-07-30T16:13:42;9.48;;;2.60;;
19137;SDS011;68178;52.188;5.598;2023-07-30T16:16:12;5.57;;;2.03;;
19137;SDS011;68178;52.188;5.598;2023-07-30T16:18:39;10.10;;;2.03;;
19137;SDS011;68178;52.188;5.598;2023-07-30T16:21:08;6.50;;;2.47;;
19137;SDS011;68178;52.188;5.598;2023-07-30T16:23:34;10.18;;;2.47;;